createdAt,value
2018-07-12T00:00:18.132Z,1008.34
2018-07-12T00:00:58.704Z,1008.31
2018-07-12T00:01:39.277Z,1008.3
2018-07-12T00:02:19.846Z,1008.34
2018-07-12T00:03:00.408Z,1008.31
2018-07-12T00:03:40.963Z,1008.35
2018-07-12T00:04:21.522Z,1008.33
2018-07-12T00:05:02.080Z,1008.32
2018-07-12T00:05:42.628Z,1008.35
2018-07-12T00:06:26.052Z,1008.34
2018-07-12T00:07:06.598Z,1008.36
2018-07-12T00:07:47.168Z,1008.33
2018-07-12T00:08:27.721Z,1008.33
2018-07-12T00:09:08.322Z,1008.33
2018-07-12T00:09:48.882Z,1008.3
2018-07-12T00:10:29.445Z,1008.35
2018-07-12T00:11:10.029Z,1008.33
2018-07-12T00:11:50.590Z,1008.34
2018-07-12T00:12:31.155Z,1008.35
2018-07-12T00:13:11.710Z,1008.36
2018-07-12T00:13:52.287Z,1008.36
2018-07-12T00:14:32.848Z,1008.36
2018-07-12T00:15:13.403Z,1008.37
2018-07-12T00:15:53.960Z,1008.39
2018-07-12T00:16:34.528Z,1008.34
2018-07-12T00:17:15.084Z,1008.38
2018-07-12T00:17:55.653Z,1008.34
2018-07-12T00:18:36.206Z,1008.33
2018-07-12T00:19:16.781Z,1008.35
2018-07-12T00:19:57.357Z,1008.31
2018-07-12T00:20:37.912Z,1008.31
2018-07-12T00:21:18.465Z,1008.31
2018-07-12T00:21:59.034Z,1008.3
2018-07-12T00:22:39.592Z,1008.32
2018-07-12T00:23:20.135Z,1008.34
2018-07-12T00:24:00.704Z,1008.32
2018-07-12T00:24:41.271Z,1008.34
2018-07-12T00:25:21.826Z,1008.35
2018-07-12T00:26:02.398Z,1008.34
2018-07-12T00:26:42.955Z,1008.38
2018-07-12T00:27:23.523Z,1008.36
2018-07-12T00:28:04.075Z,1008.36
2018-07-12T00:28:44.644Z,1008.36
2018-07-12T00:29:25.222Z,1008.35
2018-07-12T00:30:05.781Z,1008.39
2018-07-12T00:30:46.336Z,1008.37
2018-07-12T00:31:26.902Z,1008.42
2018-07-12T00:32:07.469Z,1008.37
2018-07-12T00:32:48.813Z,1008.37
2018-07-12T00:33:29.393Z,1008.34
2018-07-12T00:34:09.949Z,1008.38
2018-07-12T00:34:50.505Z,1008.36
2018-07-12T00:35:31.069Z,1008.36
2018-07-12T00:36:11.638Z,1008.36
2018-07-12T00:36:52.206Z,1008.38
2018-07-12T00:37:32.770Z,1008.35
2018-07-12T00:38:13.332Z,1008.36
2018-07-12T00:38:53.896Z,1008.34
2018-07-12T00:39:34.450Z,1008.33
2018-07-12T00:40:15.026Z,1008.32
2018-07-12T00:40:55.592Z,1008.35
2018-07-12T00:41:36.146Z,1008.37
2018-07-12T00:42:16.724Z,1008.34
2018-07-12T00:42:57.281Z,1008.32
2018-07-12T00:43:37.836Z,1008.36
2018-07-12T00:44:18.398Z,1008.34
2018-07-12T00:44:58.953Z,1008.36
2018-07-12T00:45:39.514Z,1008.36
2018-07-12T00:46:20.075Z,1008.35
2018-07-12T00:47:00.649Z,1008.41
2018-07-12T00:47:41.205Z,1008.35
2018-07-12T00:48:21.775Z,1008.36
2018-07-12T00:49:02.354Z,1008.35
2018-07-12T00:49:42.920Z,1008.34
2018-07-12T00:50:23.475Z,1008.37
2018-07-12T00:51:04.021Z,1008.31
2018-07-12T00:51:44.570Z,1008.32
2018-07-12T00:52:25.123Z,1008.34
2018-07-12T00:53:05.679Z,1008.34
2018-07-12T00:53:46.243Z,1008.35
2018-07-12T00:54:26.816Z,1008.35
2018-07-12T00:55:07.410Z,1008.36
2018-07-12T00:55:47.972Z,1008.37
2018-07-12T00:56:28.530Z,1008.36
2018-07-12T00:57:09.094Z,1008.39
2018-07-12T00:57:49.668Z,1008.36
2018-07-12T00:58:30.229Z,1008.38
2018-07-12T00:59:10.798Z,1008.36
2018-07-12T00:59:51.365Z,1008.35
2018-07-12T01:00:31.931Z,1008.34
2018-07-12T01:01:12.486Z,1008.37
2018-07-12T01:01:53.037Z,1008.35
2018-07-12T01:02:33.600Z,1008.31
2018-07-12T01:03:14.138Z,1008.36
2018-07-12T01:03:54.716Z,1008.37
2018-07-12T01:04:35.276Z,1008.33
2018-07-12T01:05:15.855Z,1008.33
2018-07-12T01:05:56.421Z,1008.31
2018-07-12T01:06:36.988Z,1008.32
2018-07-12T01:07:17.541Z,1008.29
2018-07-12T01:07:58.090Z,1008.29
2018-07-12T01:08:38.670Z,1008.26
2018-07-12T01:09:19.230Z,1008.26
2018-07-12T01:09:59.801Z,1008.31
2018-07-12T01:10:40.395Z,1008.3
2018-07-12T01:11:20.964Z,1008.24
2018-07-12T01:12:01.529Z,1008.26
2018-07-12T01:12:42.091Z,1008.26
2018-07-12T01:13:22.659Z,1008.26
2018-07-12T01:14:03.219Z,1008.26
2018-07-12T01:14:43.788Z,1008.34
2018-07-12T01:15:24.358Z,1008.31
2018-07-12T01:16:04.911Z,1008.28
2018-07-12T01:16:45.479Z,1008.25
2018-07-12T01:17:26.035Z,1008.32
2018-07-12T01:18:06.589Z,1008.25
2018-07-12T01:18:47.146Z,1008.28
2018-07-12T01:19:27.708Z,1008.32
2018-07-12T01:20:08.285Z,1008.3
2018-07-12T01:20:48.851Z,1008.26
2018-07-12T01:21:29.408Z,1008.29
2018-07-12T01:22:09.965Z,1008.28
2018-07-12T01:22:50.536Z,1008.26
2018-07-12T01:23:31.102Z,1008.29
2018-07-12T01:24:11.642Z,1008.25
2018-07-12T01:24:52.248Z,1008.26
2018-07-12T01:25:32.793Z,1008.26
2018-07-12T01:26:13.365Z,1008.29
2018-07-12T01:26:53.921Z,1008.26
2018-07-12T01:27:34.491Z,1008.3
2018-07-12T01:28:15.023Z,1008.33
2018-07-12T01:28:55.582Z,1008.29
2018-07-12T01:29:36.141Z,1008.32
2018-07-12T01:30:16.715Z,1008.3
2018-07-12T01:30:57.280Z,1008.28
2018-07-12T01:31:37.852Z,1008.28
2018-07-12T01:32:18.414Z,1008.28
2018-07-12T01:32:59.002Z,1008.26
2018-07-12T01:33:39.547Z,1008.26
2018-07-12T01:34:20.178Z,1008.27
2018-07-12T01:35:00.729Z,1008.22
2018-07-12T01:35:41.298Z,1008.24
2018-07-12T01:36:21.864Z,1008.2
2018-07-12T01:37:02.442Z,1008.23
2018-07-12T01:37:43.015Z,1008.21
2018-07-12T01:38:23.581Z,1008.2
2018-07-12T01:39:04.141Z,1008.22
2018-07-12T01:39:44.691Z,1008.22
2018-07-12T01:40:25.240Z,1008.17
2018-07-12T01:41:05.807Z,1008.14
2018-07-12T01:41:46.369Z,1008.09
2018-07-12T01:42:26.946Z,1008.1
2018-07-12T01:43:07.522Z,1008.1
2018-07-12T01:43:48.089Z,1008.07
2018-07-12T01:44:28.640Z,1008.08
2018-07-12T01:45:09.199Z,1008.07
2018-07-12T01:45:49.765Z,1008.06
2018-07-12T01:46:30.316Z,1008.05
2018-07-12T01:47:10.884Z,1008.07
2018-07-12T01:47:51.444Z,1008.09
2018-07-12T01:48:32.002Z,1008.09
2018-07-12T01:49:12.578Z,1008.05
2018-07-12T01:49:53.138Z,1008.08
2018-07-12T01:50:33.698Z,1008.07
2018-07-12T01:51:14.258Z,1008.06
2018-07-12T01:51:54.824Z,1008.07
2018-07-12T01:52:35.382Z,1008.08
2018-07-12T01:53:15.947Z,1008.07
2018-07-12T01:53:56.521Z,1008.08
2018-07-12T01:54:37.083Z,1008.07
2018-07-12T01:55:17.636Z,1008.07
2018-07-12T01:55:58.210Z,1008.07
2018-07-12T01:56:38.770Z,1008.05
2018-07-12T01:57:19.347Z,1008.04
2018-07-12T01:57:59.917Z,1008.03
2018-07-12T01:58:40.545Z,1008.03
2018-07-12T01:59:21.065Z,1008.04
2018-07-12T02:00:01.619Z,1008.04
2018-07-12T02:00:42.233Z,1008.05
2018-07-12T02:01:22.755Z,1008.02
2018-07-12T02:02:03.308Z,1008.02
2018-07-12T02:02:43.880Z,1007.98
2018-07-12T02:03:24.434Z,1007.99
2018-07-12T02:04:05.017Z,1008.02
2018-07-12T02:04:45.570Z,1008.09
2018-07-12T02:05:26.117Z,1008.07
2018-07-12T02:06:06.674Z,1008.03
2018-07-12T02:06:47.242Z,1008.02
2018-07-12T02:07:27.805Z,1008.02
2018-07-12T02:08:08.362Z,1008.04
2018-07-12T02:08:48.931Z,1008.07
2018-07-12T02:09:29.488Z,1008.01
2018-07-12T02:10:10.033Z,1008.05
2018-07-12T02:10:50.615Z,1008.01
2018-07-12T02:11:31.190Z,1008.08
2018-07-12T02:12:11.759Z,1008.07
2018-07-12T02:12:52.329Z,1008.04
2018-07-12T02:13:32.898Z,1008.07
2018-07-12T02:14:13.461Z,1008.07
2018-07-12T02:14:54.065Z,1008.03
2018-07-12T02:15:34.655Z,1008.04
2018-07-12T02:16:15.229Z,1008.06
2018-07-12T02:16:55.821Z,1008.03
2018-07-12T02:17:36.357Z,1008
2018-07-12T02:18:16.914Z,1008.04
2018-07-12T02:18:57.491Z,1008.02
2018-07-12T02:19:38.049Z,1008.05
2018-07-12T02:20:18.635Z,1008.02
2018-07-12T02:20:59.222Z,1008.03
2018-07-12T02:21:39.785Z,1008.01
2018-07-12T02:22:20.372Z,1008.03
2018-07-12T02:23:00.945Z,1008.05
2018-07-12T02:23:41.501Z,1008.04
2018-07-12T02:24:22.077Z,1008.07
2018-07-12T02:25:02.648Z,1008.06
2018-07-12T02:25:43.216Z,1008.04
2018-07-12T02:26:23.789Z,1008.04
2018-07-12T02:27:04.356Z,1008.05
2018-07-12T02:27:44.911Z,1008.03
2018-07-12T02:28:25.489Z,1008.04
2018-07-12T02:29:06.043Z,1008.06
2018-07-12T02:29:46.602Z,1008.01
2018-07-12T02:30:27.158Z,1008.04
2018-07-12T02:31:07.725Z,1008.01
2018-07-12T02:31:48.298Z,1008.04
2018-07-12T02:32:28.860Z,1008.01
2018-07-12T02:33:09.428Z,1008.01
2018-07-12T02:33:49.995Z,1008.01
2018-07-12T02:34:30.549Z,1008.03
2018-07-12T02:35:11.223Z,1008.01
2018-07-12T02:35:51.696Z,1007.98
2018-07-12T02:36:32.254Z,1007.97
2018-07-12T02:37:12.811Z,1007.97
2018-07-12T02:37:53.385Z,1007.93
2018-07-12T02:38:33.953Z,1007.93
2018-07-12T02:39:14.516Z,1007.91
2018-07-12T02:39:55.089Z,1007.92
2018-07-12T02:40:35.641Z,1007.88
2018-07-12T02:41:16.203Z,1007.86
2018-07-12T02:41:56.772Z,1007.86
2018-07-12T02:42:37.338Z,1007.87
2018-07-12T02:43:17.904Z,1007.83
2018-07-12T02:43:58.467Z,1007.79
2018-07-12T02:44:39.043Z,1007.78
2018-07-12T02:45:19.593Z,1007.8
2018-07-12T02:46:00.164Z,1007.76
2018-07-12T02:46:40.731Z,1007.8
2018-07-12T02:47:21.280Z,1007.76
2018-07-12T02:48:01.838Z,1007.76
2018-07-12T02:48:42.420Z,1007.75
2018-07-12T02:49:22.984Z,1007.75
2018-07-12T02:50:03.548Z,1007.81
2018-07-12T02:50:44.119Z,1007.73
2018-07-12T02:51:24.679Z,1007.67
2018-07-12T02:52:05.241Z,1007.68
2018-07-12T02:52:45.809Z,1007.61
2018-07-12T02:53:26.377Z,1007.56
2018-07-12T02:54:06.936Z,1007.57
2018-07-12T02:54:47.504Z,1007.6
2018-07-12T02:55:28.074Z,1007.6
2018-07-12T02:56:08.629Z,1007.61
2018-07-12T02:56:49.230Z,1007.59
2018-07-12T02:57:29.794Z,1007.62
2018-07-12T02:58:10.358Z,1007.59
2018-07-12T02:58:50.908Z,1007.6
2018-07-12T02:59:31.481Z,1007.58
2018-07-12T03:00:12.064Z,1007.57
2018-07-12T03:00:52.643Z,1007.54
2018-07-12T03:01:33.208Z,1007.54
2018-07-12T03:02:13.775Z,1007.52
2018-07-12T03:02:54.336Z,1007.56
2018-07-12T03:03:34.894Z,1007.55
2018-07-12T03:04:15.456Z,1007.53
2018-07-12T03:04:56.019Z,1007.5
2018-07-12T03:05:36.578Z,1007.48
2018-07-12T03:06:17.143Z,1007.45
2018-07-12T03:06:57.701Z,1007.48
2018-07-12T03:07:38.291Z,1007.44
2018-07-12T03:08:18.853Z,1007.41
2018-07-12T03:08:59.419Z,1007.39
2018-07-12T03:09:39.984Z,1007.37
2018-07-12T03:10:20.557Z,1007.36
2018-07-12T03:11:01.124Z,1007.38
2018-07-12T03:11:41.679Z,1007.36
2018-07-12T03:12:22.252Z,1007.4
2018-07-12T03:13:02.813Z,1007.38
2018-07-12T03:13:43.371Z,1007.38
2018-07-12T03:14:23.924Z,1007.34
2018-07-12T03:15:04.469Z,1007.37
2018-07-12T03:15:45.056Z,1007.36
2018-07-12T03:16:25.612Z,1007.35
2018-07-12T03:17:06.163Z,1007.33
2018-07-12T03:17:46.725Z,1007.3
2018-07-12T03:18:27.290Z,1007.29
2018-07-12T03:19:07.863Z,1007.31
2018-07-12T03:19:48.423Z,1007.24
2018-07-12T03:20:28.999Z,1007.25
2018-07-12T03:21:09.565Z,1007.26
2018-07-12T03:21:50.127Z,1007.25
2018-07-12T03:22:30.672Z,1007.22
2018-07-12T03:23:11.242Z,1007.22
2018-07-12T03:23:51.801Z,1007.22
2018-07-12T03:24:32.358Z,1007.22
2018-07-12T03:25:12.930Z,1007.17
2018-07-12T03:25:53.487Z,1007.22
2018-07-12T03:26:34.078Z,1007.21
2018-07-12T03:27:14.625Z,1007.18
2018-07-12T03:27:55.207Z,1007.14
2018-07-12T03:28:35.779Z,1007.15
2018-07-12T03:29:16.339Z,1007.15
2018-07-12T03:29:56.889Z,1007.09
2018-07-12T03:30:37.440Z,1007.15
2018-07-12T03:31:18.020Z,1007.1
2018-07-12T03:31:58.586Z,1007.13
2018-07-12T03:32:39.149Z,1007.12
2018-07-12T03:33:19.727Z,1007.11
2018-07-12T03:34:00.289Z,1007.1
2018-07-12T03:34:40.849Z,1007.09
2018-07-12T03:35:21.431Z,1007.11
2018-07-12T03:36:02.009Z,1007.08
2018-07-12T03:36:42.585Z,1007.09
2018-07-12T03:37:23.180Z,1007.06
2018-07-12T03:38:03.747Z,1007.04
2018-07-12T03:38:44.304Z,1007.07
2018-07-12T03:39:24.897Z,1007.04
2018-07-12T03:40:05.493Z,1007.04
2018-07-12T03:40:46.060Z,1007.06
2018-07-12T03:41:26.626Z,1007.02
2018-07-12T03:42:07.189Z,1007.04
2018-07-12T03:42:47.740Z,1007.04
2018-07-12T03:43:28.296Z,1007.01
2018-07-12T03:44:08.877Z,1007.03
2018-07-12T03:44:49.448Z,1007.06
2018-07-12T03:45:30.014Z,1007.04
2018-07-12T03:46:10.570Z,1007.01
2018-07-12T03:46:51.144Z,1007.03
2018-07-12T03:47:31.702Z,1007.01
2018-07-12T03:48:12.283Z,1007.01
2018-07-12T03:48:52.856Z,1006.99
2018-07-12T03:49:33.420Z,1007
2018-07-12T03:50:13.999Z,1007
2018-07-12T03:50:54.559Z,1006.99
2018-07-12T03:51:35.103Z,1007.01
2018-07-12T03:52:15.672Z,1007.01
2018-07-12T03:52:56.228Z,1007
2018-07-12T03:53:36.764Z,1006.95
2018-07-12T03:54:17.326Z,1006.96
2018-07-12T03:54:57.878Z,1006.98
2018-07-12T03:55:38.494Z,1006.95
2018-07-12T03:56:19.065Z,1006.97
2018-07-12T03:56:59.629Z,1006.95
2018-07-12T03:57:40.199Z,1006.96
2018-07-12T03:58:20.769Z,1006.94
2018-07-12T03:59:01.342Z,1006.93
2018-07-12T03:59:41.935Z,1006.97
2018-07-12T04:00:22.513Z,1006.95
2018-07-12T04:01:03.076Z,1006.97
2018-07-12T04:01:43.641Z,1006.95
2018-07-12T04:02:24.203Z,1006.96
2018-07-12T04:03:04.766Z,1006.98
2018-07-12T04:03:45.342Z,1006.89
2018-07-12T04:04:25.892Z,1006.93
2018-07-12T04:05:06.445Z,1006.99
2018-07-12T04:05:46.994Z,1006.91
2018-07-12T04:06:27.580Z,1006.88
2018-07-12T04:07:08.175Z,1006.85
2018-07-12T04:07:48.730Z,1006.83
2018-07-12T04:08:29.296Z,1006.84
2018-07-12T04:09:09.850Z,1006.83
2018-07-12T04:09:50.396Z,1006.82
2018-07-12T04:10:30.952Z,1006.8
2018-07-12T04:11:11.538Z,1006.82
2018-07-12T04:11:52.109Z,1006.85
2018-07-12T04:12:32.671Z,1006.77
2018-07-12T04:13:13.235Z,1006.75
2018-07-12T04:13:53.789Z,1006.79
2018-07-12T04:14:34.360Z,1006.78
2018-07-12T04:15:14.935Z,1006.82
2018-07-12T04:15:55.496Z,1006.8
2018-07-12T04:16:36.046Z,1006.78
2018-07-12T04:17:16.617Z,1006.84
2018-07-12T04:17:57.205Z,1006.89
2018-07-12T04:18:37.759Z,1006.85
2018-07-12T04:19:18.314Z,1006.79
2018-07-12T04:19:58.881Z,1006.78
2018-07-12T04:20:39.445Z,1006.77
2018-07-12T04:21:20.007Z,1006.84
2018-07-12T04:22:00.577Z,1006.77
2018-07-12T04:22:41.145Z,1006.75
2018-07-12T04:23:21.694Z,1006.7
2018-07-12T04:24:02.257Z,1006.72
2018-07-12T04:24:42.828Z,1006.7
2018-07-12T04:25:23.373Z,1006.73
2018-07-12T04:26:03.966Z,1006.7
2018-07-12T04:26:44.542Z,1006.73
2018-07-12T04:27:25.114Z,1006.7
2018-07-12T04:28:05.672Z,1006.76
2018-07-12T04:28:46.226Z,1006.73
2018-07-12T04:29:26.804Z,1006.69
2018-07-12T04:30:07.369Z,1006.71
2018-07-12T04:30:47.939Z,1006.7
2018-07-12T04:31:28.505Z,1006.7
2018-07-12T04:32:09.072Z,1006.62
2018-07-12T04:32:49.625Z,1006.67
2018-07-12T04:33:30.185Z,1006.65
2018-07-12T04:34:10.763Z,1006.63
2018-07-12T04:34:51.318Z,1006.62
2018-07-12T04:35:31.889Z,1006.54
2018-07-12T04:36:12.461Z,1006.48
2018-07-12T04:36:53.030Z,1006.47
2018-07-12T04:37:33.586Z,1006.46
2018-07-12T04:38:14.206Z,1006.42
2018-07-12T04:38:54.781Z,1006.4
2018-07-12T04:39:35.339Z,1006.42
2018-07-12T04:40:15.913Z,1006.37
2018-07-12T04:40:56.472Z,1006.38
2018-07-12T04:41:37.035Z,1006.34
2018-07-12T04:42:17.620Z,1006.28
2018-07-12T04:42:58.194Z,1006.3
2018-07-12T04:43:38.794Z,1006.34
2018-07-12T04:44:19.375Z,1006.32
2018-07-12T04:44:59.949Z,1006.31
2018-07-12T04:45:40.517Z,1006.26
2018-07-12T04:46:21.076Z,1006.23
2018-07-12T04:47:01.643Z,1006.21
2018-07-12T04:47:42.207Z,1006.2
2018-07-12T04:48:22.770Z,1006.18
2018-07-12T04:49:03.327Z,1006.19
2018-07-12T04:49:43.901Z,1006.17
2018-07-12T04:50:24.447Z,1006.17
2018-07-12T04:51:05.088Z,1006.14
2018-07-12T04:51:45.602Z,1006.12
2018-07-12T04:52:26.156Z,1006.11
2018-07-12T04:53:06.738Z,1006.05
2018-07-12T04:53:47.307Z,1006.05
2018-07-12T04:54:27.869Z,1006.07
2018-07-12T04:55:08.416Z,1006.05
2018-07-12T04:55:48.991Z,1006
2018-07-12T04:56:29.540Z,1006
2018-07-12T04:57:10.094Z,1006.03
2018-07-12T04:57:50.649Z,1005.96
2018-07-12T04:58:31.238Z,1005.94
2018-07-12T04:59:11.777Z,1005.94
2018-07-12T04:59:52.359Z,1005.93
2018-07-12T05:00:32.979Z,1005.88
2018-07-12T05:01:13.514Z,1005.87
2018-07-12T05:01:54.055Z,1005.88
2018-07-12T05:02:34.608Z,1005.85
2018-07-12T05:03:15.156Z,1005.8
2018-07-12T05:03:55.712Z,1005.8
2018-07-12T05:04:36.263Z,1005.79
2018-07-12T05:05:16.807Z,1005.79
2018-07-12T05:05:57.379Z,1005.78
2018-07-12T05:06:37.948Z,1005.79
2018-07-12T05:07:18.597Z,1005.75
2018-07-12T05:07:59.171Z,1005.74
2018-07-12T05:08:39.732Z,1005.71
2018-07-12T05:09:20.284Z,1005.7
2018-07-12T05:10:00.899Z,1005.65
2018-07-12T05:10:41.454Z,1005.66
2018-07-12T05:11:22.022Z,1005.59
2018-07-12T05:12:02.585Z,1005.58
2018-07-12T05:12:43.200Z,1005.5
2018-07-12T05:13:23.763Z,1005.57
2018-07-12T05:14:04.333Z,1005.51
2018-07-12T05:14:44.893Z,1005.47
2018-07-12T05:15:25.465Z,1005.43
2018-07-12T05:16:06.094Z,1005.47
2018-07-12T05:16:46.623Z,1005.43
2018-07-12T05:17:27.197Z,1005.42
2018-07-12T05:18:07.749Z,1005.36
2018-07-12T05:18:48.331Z,1005.34
2018-07-12T05:19:28.886Z,1005.3
2018-07-12T05:20:09.435Z,1005.28
2018-07-12T05:20:50.010Z,1005.23
2018-07-12T05:21:30.566Z,1005.21
2018-07-12T05:22:11.139Z,1005.17
2018-07-12T05:22:51.704Z,1005.21
2018-07-12T05:23:32.263Z,1005.16
2018-07-12T05:24:12.828Z,1005.14
2018-07-12T05:24:53.399Z,1005.17
2018-07-12T05:25:33.974Z,1005.17
2018-07-12T05:26:14.535Z,1005.14
2018-07-12T05:26:55.102Z,1005.11
2018-07-12T05:27:35.671Z,1005.07
2018-07-12T05:28:16.229Z,1005.02
2018-07-12T05:28:56.796Z,1004.98
2018-07-12T05:29:37.370Z,1005.08
2018-07-12T05:30:17.920Z,1005.08
2018-07-12T05:30:58.612Z,1005.07
2018-07-12T05:31:39.227Z,1005.07
2018-07-12T05:32:19.766Z,1005
2018-07-12T05:33:00.355Z,1005.01
2018-07-12T05:33:40.931Z,1004.98
2018-07-12T05:34:21.493Z,1005
2018-07-12T05:35:02.065Z,1004.97
2018-07-12T05:35:42.627Z,1005
2018-07-12T05:36:23.202Z,1005.17
2018-07-12T05:37:03.759Z,1005.19
2018-07-12T05:37:44.327Z,1005.21
2018-07-12T05:38:24.882Z,1005.18
2018-07-12T05:39:05.475Z,1005.11
2018-07-12T05:39:46.057Z,1005.19
2018-07-12T05:40:26.636Z,1005.19
2018-07-12T05:41:07.252Z,1005.16
2018-07-12T05:41:47.829Z,1005.19
2018-07-12T05:42:28.388Z,1005.12
2018-07-12T05:43:08.968Z,1005.2
2018-07-12T05:43:49.528Z,1005.19
2018-07-12T05:44:30.096Z,1005.14
2018-07-12T05:45:10.662Z,1005.19
2018-07-12T05:45:51.243Z,1005.2
2018-07-12T05:46:31.871Z,1005.13
2018-07-12T05:47:12.477Z,1005.15
2018-07-12T05:47:53.001Z,1005.37
2018-07-12T05:48:33.576Z,1005.42
2018-07-12T05:49:14.128Z,1005.49
2018-07-12T05:49:54.718Z,1005.54
2018-07-12T05:50:35.271Z,1005.56
2018-07-12T05:51:15.829Z,1005.56
2018-07-12T05:51:56.398Z,1005.49
2018-07-12T05:52:36.970Z,1005.46
2018-07-12T05:53:17.539Z,1005.47
2018-07-12T05:53:58.092Z,1005.48
2018-07-12T05:54:38.661Z,1005.45
2018-07-12T05:55:19.232Z,1005.52
2018-07-12T05:55:59.801Z,1005.46
2018-07-12T05:56:40.360Z,1005.51
2018-07-12T05:57:20.943Z,1005.51
2018-07-12T05:58:01.488Z,1005.53
2018-07-12T05:58:42.061Z,1005.54
2018-07-12T05:59:22.645Z,1005.57
2018-07-12T06:00:03.182Z,1005.6
2018-07-12T06:00:43.745Z,1005.55
2018-07-12T06:01:24.322Z,1005.6
2018-07-12T06:02:04.894Z,1005.55
2018-07-12T06:02:45.497Z,1005.53
2018-07-12T06:03:26.041Z,1005.57
2018-07-12T06:04:06.639Z,1005.6
2018-07-12T06:04:47.200Z,1005.56
2018-07-12T06:05:27.768Z,1005.55
2018-07-12T06:06:08.338Z,1005.59
2018-07-12T06:06:48.898Z,1005.57
2018-07-12T06:07:29.478Z,1005.59
2018-07-12T06:08:10.044Z,1005.62
2018-07-12T06:08:50.608Z,1005.62
2018-07-12T06:09:31.183Z,1005.57
2018-07-12T06:10:11.759Z,1005.58
2018-07-12T06:10:52.317Z,1005.6
2018-07-12T06:11:32.875Z,1005.66
2018-07-12T06:12:13.460Z,1005.66
2018-07-12T06:12:54.017Z,1005.66
2018-07-12T06:13:34.582Z,1005.71
2018-07-12T06:14:15.154Z,1005.69
2018-07-12T06:14:55.722Z,1005.67
2018-07-12T06:15:36.268Z,1005.67
2018-07-12T06:16:16.856Z,1005.7
2018-07-12T06:16:57.436Z,1005.67
2018-07-12T06:17:37.989Z,1005.68
2018-07-12T06:18:18.554Z,1005.67
2018-07-12T06:18:59.153Z,1005.68
2018-07-12T06:19:39.689Z,1005.66
2018-07-12T06:20:20.272Z,1005.64
2018-07-12T06:21:00.827Z,1005.66
2018-07-12T06:21:41.373Z,1005.68
2018-07-12T06:22:21.941Z,1005.67
2018-07-12T06:23:02.500Z,1005.66
2018-07-12T06:23:43.065Z,1005.7
2018-07-12T06:24:23.631Z,1005.74
2018-07-12T06:25:04.463Z,1005.73
2018-07-12T06:25:45.321Z,1005.7
2018-07-12T06:26:25.898Z,1005.74
2018-07-12T06:27:06.462Z,1005.7
2018-07-12T06:27:47.017Z,1005.7
2018-07-12T06:28:27.569Z,1005.71
2018-07-12T06:29:08.158Z,1005.75
2018-07-12T06:29:48.731Z,1005.71
2018-07-12T06:30:29.302Z,1005.65
2018-07-12T06:31:09.869Z,1005.67
2018-07-12T06:31:50.429Z,1005.72
2018-07-12T06:32:31.003Z,1005.71
2018-07-12T06:33:11.579Z,1005.67
2018-07-12T06:33:52.152Z,1005.69
2018-07-12T06:34:32.711Z,1005.7
2018-07-12T06:35:13.273Z,1005.72
2018-07-12T06:35:53.831Z,1005.72
2018-07-12T06:36:34.404Z,1005.68
2018-07-12T06:37:15.000Z,1005.74
2018-07-12T06:37:55.550Z,1005.74
2018-07-12T06:38:36.143Z,1005.75
2018-07-12T06:39:16.722Z,1005.76
2018-07-12T06:39:57.291Z,1005.89
2018-07-12T06:40:37.907Z,1005.84
2018-07-12T06:41:18.442Z,1005.89
2018-07-12T06:41:59.022Z,1005.88
2018-07-12T06:42:39.619Z,1005.91
2018-07-12T06:43:20.168Z,1005.96
2018-07-12T06:44:00.729Z,1005.93
2018-07-12T06:44:41.299Z,1005.95
2018-07-12T06:45:21.863Z,1006.05
2018-07-12T06:46:02.433Z,1006.07
2018-07-12T06:46:43.011Z,1006.11
2018-07-12T06:47:23.569Z,1006.11
2018-07-12T06:48:04.148Z,1006.08
2018-07-12T06:48:44.728Z,1006.09
2018-07-12T06:49:25.285Z,1006.1
2018-07-12T06:50:05.858Z,1006.11
2018-07-12T06:50:46.433Z,1006.07
2018-07-12T06:51:26.988Z,1006.14
2018-07-12T06:52:07.558Z,1006.08
2018-07-12T06:52:48.163Z,1006.1
2018-07-12T06:53:28.687Z,1006.13
2018-07-12T06:54:09.236Z,1006.11
2018-07-12T06:54:49.814Z,1006.15
2018-07-12T06:55:30.375Z,1006.11
2018-07-12T06:56:10.961Z,1006.12
2018-07-12T06:56:51.523Z,1006.15
2018-07-12T06:57:32.132Z,1006.18
2018-07-12T06:58:12.760Z,1006.21
2018-07-12T06:58:53.336Z,1006.22
2018-07-12T06:59:33.894Z,1006.19
2018-07-12T07:00:14.472Z,1006.22
2018-07-12T07:00:55.020Z,1006.19
2018-07-12T07:01:35.613Z,1006.24
2018-07-12T07:02:16.181Z,1006.19
2018-07-12T07:02:56.752Z,1006.2
2018-07-12T07:03:37.322Z,1006.24
2018-07-12T07:04:17.878Z,1006.23
2018-07-12T07:04:58.441Z,1006.24
2018-07-12T07:05:39.016Z,1006.21
2018-07-12T07:06:19.590Z,1006.25
2018-07-12T07:07:00.155Z,1006.19
2018-07-12T07:07:40.731Z,1006.21
2018-07-12T07:08:21.287Z,1006.24
2018-07-12T07:09:01.872Z,1006.23
2018-07-12T07:09:42.440Z,1006.21
2018-07-12T07:10:23.011Z,1006.23
2018-07-12T07:11:03.562Z,1006.23
2018-07-12T07:11:44.141Z,1006.19
2018-07-12T07:12:24.719Z,1006.22
2018-07-12T07:13:05.284Z,1006.23
2018-07-12T07:13:45.852Z,1006.23
2018-07-12T07:14:26.419Z,1006.19
2018-07-12T07:15:07.029Z,1006.24
2018-07-12T07:15:47.597Z,1006.24
2018-07-12T07:16:28.197Z,1006.26
2018-07-12T07:17:08.742Z,1006.24
2018-07-12T07:17:49.317Z,1006.23
2018-07-12T07:18:29.883Z,1006.2
2018-07-12T07:19:10.547Z,1006.23
2018-07-12T07:19:51.052Z,1006.26
2018-07-12T07:20:31.640Z,1006.24
2018-07-12T07:21:12.221Z,1006.21
2018-07-12T07:21:52.782Z,1006.21
2018-07-12T07:22:33.355Z,1006.25
2018-07-12T07:23:13.911Z,1006.26
2018-07-12T07:23:54.475Z,1006.29
2018-07-12T07:24:35.101Z,1006.22
2018-07-12T07:25:15.632Z,1006.21
2018-07-12T07:25:56.191Z,1006.22
2018-07-12T07:26:36.760Z,1006.24
2018-07-12T07:27:17.324Z,1006.26
2018-07-12T07:27:57.893Z,1006.27
2018-07-12T07:28:38.447Z,1006.23
2018-07-12T07:29:19.023Z,1006.29
2018-07-12T07:29:59.571Z,1006.27
2018-07-12T07:30:40.145Z,1006.31
2018-07-12T07:31:20.712Z,1006.23
2018-07-12T07:32:01.257Z,1006.33
2018-07-12T07:32:41.818Z,1006.33
2018-07-12T07:33:22.382Z,1006.35
2018-07-12T07:34:02.925Z,1006.37
2018-07-12T07:34:43.480Z,1006.34
2018-07-12T07:35:24.052Z,1006.4
2018-07-12T07:36:04.617Z,1006.34
2018-07-12T07:36:45.201Z,1006.35
2018-07-12T07:37:25.801Z,1006.29
2018-07-12T07:38:06.332Z,1006.31
2018-07-12T07:38:46.907Z,1006.29
2018-07-12T07:39:27.473Z,1006.25
2018-07-12T07:40:08.032Z,1006.23
2018-07-12T07:40:48.591Z,1006.24
2018-07-12T07:41:29.158Z,1006.2
2018-07-12T07:42:09.724Z,1006.23
2018-07-12T07:42:50.275Z,1006.21
2018-07-12T07:43:30.822Z,1006.15
2018-07-12T07:44:11.383Z,1006.14
2018-07-12T07:44:51.928Z,1006.17
2018-07-12T07:45:32.490Z,1006.16
2018-07-12T07:46:13.084Z,1006.19
2018-07-12T07:46:53.675Z,1006.14
2018-07-12T07:47:34.239Z,1006.18
2018-07-12T07:48:14.814Z,1006.14
2018-07-12T07:48:55.383Z,1006.15
2018-07-12T07:49:35.975Z,1006.18
2018-07-12T07:50:16.536Z,1006.25
2018-07-12T07:50:57.123Z,1006.17
2018-07-12T07:51:37.689Z,1006.21
2018-07-12T07:52:18.260Z,1006.21
2018-07-12T07:52:58.811Z,1006.18
2018-07-12T07:53:39.396Z,1006.22
2018-07-12T07:54:19.995Z,1006.18
2018-07-12T07:55:00.594Z,1006.2
2018-07-12T07:55:41.138Z,1006.22
2018-07-12T07:56:21.715Z,1006.21
2018-07-12T07:57:02.354Z,1006.21
2018-07-12T07:57:42.862Z,1006.22
2018-07-12T07:58:23.456Z,1006.24
2018-07-12T07:59:04.035Z,1006.27
2018-07-12T07:59:44.596Z,1006.2
2018-07-12T08:00:25.165Z,1006.2
2018-07-12T08:01:05.726Z,1006.2
2018-07-12T08:01:46.296Z,1006.17
2018-07-12T08:02:26.858Z,1006.17
2018-07-12T08:03:07.417Z,1006.17
2018-07-12T08:03:47.969Z,1006.24
2018-07-12T08:04:28.529Z,1006.19
2018-07-12T08:05:09.140Z,1006.2
2018-07-12T08:05:49.703Z,1006.19
2018-07-12T08:06:30.268Z,1006.2
2018-07-12T08:07:10.821Z,1006.17
2018-07-12T08:07:51.440Z,1006.14
2018-07-12T08:08:32.039Z,1006.12
2018-07-12T08:09:12.627Z,1006.1
2018-07-12T08:09:53.196Z,1006.12
2018-07-12T08:10:33.755Z,1006.08
2018-07-12T08:11:14.311Z,1006.14
2018-07-12T08:11:54.878Z,1006.06
2018-07-12T08:12:35.449Z,1006.08